ADDS TAF Board (Experimental) INFO Settings

IDs: Format: Expanded Condensed

KMSP - Minneapolis-St Paul, MN, US

Issued at 2342 UTC 19 Apr 2015
Updated at: 0047 UTC 20 Apr 2015
Time2353Z 20/01Z 20/02Z 20/03Z 20/04Z 20/05Z 20/06Z 20/07Z 20/08Z 20/09Z 20/10Z 20/11Z 20/12Z 20/13Z
Type OBS PRVL PRVL PRVL PRVL PRVL PRVL PRVL PRVL PRVL PRVL PRVL PRVL PRVL
VIS 8 >6 >6 >6 >6 >6 >6 >6 >6 >6 >6 >6 >6 >6
CIG 21 19 19 30 30 30 30 30 30 30 30 35 35 35
Cover OVC OVC OVC BKN BKN BKN BKN BKN BKN BKN BKN BKN BKN BKN
FltCat MVFR MVFR MVFR MVFR MVFR MVFR MVFR MVFR MVFR MVFR MVFR VFR VFR VFR
WX -RA -RA -RA -- -- -- -- -- -- -- -- -- -- --
WDir 290 310 310 310 310 310 310 310 310 310 310 310 310 310
WSpd 11 14 14 14 14 14 14 14 14 14 14 18 18 18
WGst -- -- -- 22 22 22 22 22 22 22 22 28 28 28
R04/22
XWnd 10 14 14 14 14 14 14 14 14 14 14 18 18 18
XGst -- -- -- 22 22 22 22 22 22 22 22 28 28 28
HWnd -5 -1 -1 -1 -1 -1 -1 -1 -1 -1 -1 -2 -2 -2
HGst -- -- -- -2 -2 -2 -2 -2 -2 -2 -2 -2 -2 -2
R12/30
XWnd -2 2 2 2 2 2 2 2 2 2 2 3 3 3
XGst -- -- -- 3 3 3 3 3 3 3 3 4 4 4
HWnd -11 -14 -14 -14 -14 -14 -14 -14 -14 -14 -14 -18 -18 -18
HGst -- -- -- -22 -22 -22 -22 -22 -22 -22 -22 -28 -28 -28
R17/35
XWnd -10 -9 -9 -9 -9 -9 -9 -9 -9 -9 -9 -12 -12 -12
XGst -- -- -- -14 -14 -14 -14 -14 -14 -14 -14 -18 -18 -18
HWnd -5 -11 -11 -11 -11 -11 -11 -11 -11 -11 -11 -14 -14 -14
HGst -- -- -- -17 -17 -17 -17 -17 -17 -17 -17 -21 -21 -21

NOTE: TEMPO conditions in [brackets]. Keep in mind TEMPO conditions might be better (lower impact) than prevailing conditions.

Raw TAF
KMSP 192342Z 2000/2106 31014KT P6SM -RA BKN019 OVC025
  FM200300 31014G22KT P6SM BKN030 BKN070
  FM201100 31018G28KT P6SM BKN035
  FM202000 30023G33KT P6SM BKN035 OVC050


Raw METAR
KMSP 192353Z 29011KT 8SM -RA OVC021 09/07 A2961 RMK AO2 RAB23 SLP029 P0000 60001 T00940072 10156 20094 53007
KMSP 192253Z 30017KT 10SM SCT018 BKN029 OVC038 11/07 A2959 RMK AO2 SLP024 T01110072
KMSP 192203Z 30016G25KT 10SM FEW020 OVC028 12/08 A2959 RMK AO2 T01220078
KMSP 192153Z 30014KT 10SM OVC031 13/08 A2959 RMK AO2 PK WND 29026/2135 SLP021 T01280078

METAR Board
Radar Display
Forecast Discussion

TAF Board Legend

Potential Impact
Threat None Slight Moderate High
Visibility (sm) ≥5.1 5.1>X≥3 3>X≥1 <1
Ceiling (100 ft) ≥30.1 30.1>X≥10 10>X≥5 <5
Wind Speed (kt) <10 10≤X<20 20≤X<30 ≥30
Wind Gust (kt) <15 15≤X<25 25≤X<35 ≥35
Weather No Wx Reported VCTS,-TS,-FZRA,SN TS,FZRA +TS,+FZRA,+SN